createdAt,value
2023-05-14T00:00:46.332Z,244.57
2023-05-14T00:01:46.363Z,242.86
2023-05-14T00:02:46.482Z,240.29
2023-05-14T00:03:46.482Z,237.75
2023-05-14T00:04:46.458Z,232.59
2023-05-14T00:05:46.467Z,233.57
2023-05-14T00:06:46.509Z,229.41
2023-05-14T00:07:46.500Z,227.95
2023-05-14T00:08:46.522Z,226.57
2023-05-14T00:09:46.532Z,222.28
2023-05-14T00:10:46.558Z,219.53
2023-05-14T00:11:46.572Z,216.08
2023-05-14T00:12:46.576Z,215.82
2023-05-14T00:13:46.605Z,218.55
2023-05-14T00:14:46.628Z,220.96
2023-05-14T00:15:46.641Z,220.55
2023-05-14T00:16:46.648Z,222.77
2023-05-14T00:17:46.707Z,222.63
2023-05-14T00:18:46.650Z,221.74
2023-05-14T00:19:46.639Z,220.47
2023-05-14T00:20:46.630Z,222.43
2023-05-14T00:21:46.656Z,222.47
2023-05-14T00:22:46.638Z,225.05
2023-05-14T00:23:46.652Z,223.52
2023-05-14T00:24:46.686Z,227.51
2023-05-14T00:25:46.704Z,225.38
2023-05-14T00:26:46.709Z,230.54
2023-05-14T00:27:46.728Z,223.43
2023-05-14T00:28:46.716Z,228.12
2023-05-14T00:29:46.733Z,228.31
2023-05-14T00:30:46.765Z,227.08
2023-05-14T00:31:46.898Z,228.04
2023-05-14T00:32:46.907Z,227.74
2023-05-14T00:33:46.882Z,225.29
2023-05-14T00:34:46.887Z,219.91
2023-05-14T00:35:46.907Z,222.49
2023-05-14T00:36:46.902Z,219.72
2023-05-14T00:37:46.944Z,221.81
2023-05-14T00:38:46.965Z,216.62
2023-05-14T00:39:46.995Z,214.66
2023-05-14T00:40:47.003Z,211.77
2023-05-14T00:41:47.035Z,209.73
2023-05-14T00:42:47.058Z,206.92
2023-05-14T00:43:47.095Z,208.12
2023-05-14T00:44:47.127Z,203.79
2023-05-14T00:45:47.123Z,207.97
2023-05-14T00:46:47.180Z,207.37
2023-05-14T00:47:47.171Z,210.96
2023-05-14T00:48:47.190Z,210.27
2023-05-14T00:49:47.201Z,213.52
2023-05-14T00:50:47.242Z,211.81
2023-05-14T00:51:47.262Z,212.28
2023-05-14T00:52:47.285Z,213.55
2023-05-14T00:53:47.338Z,217.39
2023-05-14T00:54:47.325Z,218.15
2023-05-14T00:55:47.327Z,217.64
2023-05-14T00:56:47.338Z,215.74
2023-05-14T00:57:47.358Z,215.46
2023-05-14T00:58:47.407Z,216.61
2023-05-14T00:59:47.388Z,216.23
2023-05-14T01:00:47.507Z,214.35
2023-05-14T01:01:47.450Z,211.39
2023-05-14T01:02:47.516Z,208.94
2023-05-14T01:03:47.503Z,207.53
2023-05-14T01:04:47.463Z,207.81
2023-05-14T01:05:47.463Z,208.09
2023-05-14T01:06:47.509Z,208.22
2023-05-14T01:07:47.519Z,205.07
2023-05-14T01:08:47.551Z,206.80
2023-05-14T01:09:47.553Z,205.05
2023-05-14T01:10:47.562Z,204.38
2023-05-14T01:11:47.553Z,205.24
2023-05-14T01:12:47.570Z,206.79
2023-05-14T01:13:47.567Z,204.82
2023-05-14T01:14:47.597Z,204.52
2023-05-14T01:15:47.553Z,206.51
2023-05-14T01:16:47.626Z,207.99
2023-05-14T01:17:47.584Z,209.25
2023-05-14T01:18:47.658Z,209.41
2023-05-14T01:19:47.568Z,215.07
2023-05-14T01:20:47.583Z,214.22
2023-05-14T01:21:47.557Z,215.27
2023-05-14T01:22:47.592Z,214.59
2023-05-14T01:23:47.567Z,215.35
2023-05-14T01:24:47.587Z,213.22
2023-05-14T01:25:47.606Z,213.64
2023-05-14T01:26:47.610Z,214.74
2023-05-14T01:27:47.604Z,215.44
2023-05-14T01:28:47.585Z,217.85
2023-05-14T01:29:47.597Z,217.26
2023-05-14T01:30:47.601Z,215.75
2023-05-14T01:31:47.634Z,219.61
2023-05-14T01:32:47.683Z,220.05
2023-05-14T01:33:47.593Z,218.21
2023-05-14T01:34:47.593Z,220.52
2023-05-14T01:35:47.589Z,222.13
2023-05-14T01:36:47.596Z,217.51
2023-05-14T01:37:47.595Z,219.44
2023-05-14T01:38:47.569Z,217.09
2023-05-14T01:39:47.575Z,217.60
2023-05-14T01:40:47.591Z,218.98
2023-05-14T01:41:47.572Z,221.31
2023-05-14T01:42:47.630Z,223.32
2023-05-14T01:43:47.555Z,219.60
2023-05-14T01:44:47.552Z,219.78
2023-05-14T01:45:47.620Z,223.47
2023-05-14T01:46:47.532Z,224.92
2023-05-14T01:47:47.577Z,222.56
2023-05-14T01:48:47.530Z,221.61
2023-05-14T01:49:47.549Z,222.75
2023-05-14T01:50:47.548Z,221.11
2023-05-14T01:51:47.516Z,220.68
2023-05-14T01:52:47.537Z,218.54
2023-05-14T01:53:47.536Z,218.98
2023-05-14T01:54:47.530Z,221.83
2023-05-14T01:55:47.534Z,222.89
2023-05-14T01:56:47.506Z,221.10
2023-05-14T01:57:47.512Z,220.10
2023-05-14T01:58:47.498Z,218.61
2023-05-14T01:59:47.490Z,218.57
2023-05-14T02:00:47.508Z,213.90
2023-05-14T02:01:47.537Z,210.02
2023-05-14T02:02:47.527Z,207.00
2023-05-14T02:03:47.575Z,204.92
2023-05-14T02:04:47.461Z,204.10
2023-05-14T02:05:47.465Z,206.19
2023-05-14T02:06:47.461Z,207.67
2023-05-14T02:07:47.448Z,209.03
2023-05-14T02:08:47.457Z,205.78
2023-05-14T02:09:47.466Z,208.05
2023-05-14T02:10:47.458Z,211.53
2023-05-14T02:11:47.455Z,212.51
2023-05-14T02:12:47.483Z,210.90
2023-05-14T02:13:47.449Z,213.77
2023-05-14T02:14:47.458Z,210.69
2023-05-14T02:15:47.457Z,210.87
2023-05-14T02:16:47.439Z,207.57
2023-05-14T02:17:47.475Z,205.33
2023-05-14T02:18:47.481Z,207.35
2023-05-14T02:19:47.416Z,207.14
2023-05-14T02:20:47.438Z,207.86
2023-05-14T02:21:47.426Z,209.41
2023-05-14T02:22:47.403Z,208.80
2023-05-14T02:23:47.424Z,208.76
2023-05-14T02:24:47.413Z,209.90
2023-05-14T02:25:47.413Z,208.75
2023-05-14T02:26:47.412Z,203.32
2023-05-14T02:27:47.397Z,205.81
2023-05-14T02:28:47.395Z,205.82
2023-05-14T02:29:47.381Z,208.97
2023-05-14T02:30:47.381Z,209.49
2023-05-14T02:31:47.476Z,207.47
2023-05-14T02:32:47.475Z,207.33
2023-05-14T02:33:47.395Z,203.91
2023-05-14T02:34:47.391Z,204.96
2023-05-14T02:35:47.368Z,202.01
2023-05-14T02:36:47.366Z,205.80
2023-05-14T02:37:47.363Z,207.64
2023-05-14T02:38:47.365Z,202.68
2023-05-14T02:39:47.371Z,205.31
2023-05-14T02:40:47.383Z,208.42
2023-05-14T02:41:47.368Z,208.68
2023-05-14T02:42:47.385Z,208.01
2023-05-14T02:43:47.360Z,203.28
2023-05-14T02:44:47.357Z,203.23
2023-05-14T02:45:47.400Z,203.60
2023-05-14T02:46:47.407Z,202.12
2023-05-14T02:47:47.406Z,201.04
2023-05-14T02:48:47.367Z,198.49
2023-05-14T02:49:47.375Z,199.51
2023-05-14T02:50:47.368Z,199.56
2023-05-14T02:51:47.386Z,201.14
2023-05-14T02:52:47.374Z,204.26
2023-05-14T02:53:47.392Z,202.23
2023-05-14T02:54:47.402Z,201.32
2023-05-14T02:55:47.403Z,199.68
2023-05-14T02:56:47.403Z,198.15
2023-05-14T02:57:47.399Z,199.95
2023-05-14T02:58:47.384Z,202.73
2023-05-14T02:59:47.414Z,201.91
2023-05-14T03:00:47.445Z,201.49
2023-05-14T03:01:47.448Z,203.85
2023-05-14T03:02:47.529Z,204.20
2023-05-14T03:03:47.429Z,204.07
2023-05-14T03:04:47.401Z,202.79
2023-05-14T03:05:47.422Z,202.17
2023-05-14T03:06:47.431Z,201.05
2023-05-14T03:07:47.437Z,199.93
2023-05-14T03:08:47.412Z,197.30
2023-05-14T03:09:47.424Z,199.49
2023-05-14T03:10:47.412Z,199.09
2023-05-14T03:11:47.463Z,199.44
2023-05-14T03:12:47.530Z,200.01
2023-05-14T03:13:47.572Z,202.20
2023-05-14T03:14:47.618Z,204.41
2023-05-14T03:15:47.657Z,204.20
2023-05-14T03:16:47.773Z,205.77
2023-05-14T03:17:47.750Z,205.70
2023-05-14T03:18:47.734Z,206.72
2023-05-14T03:19:47.734Z,203.06
2023-05-14T03:20:47.754Z,202.64
2023-05-14T03:21:47.722Z,204.80
2023-05-14T03:22:47.725Z,207.86
2023-05-14T03:23:47.736Z,204.37
2023-05-14T03:24:47.725Z,208.43
2023-05-14T03:25:47.744Z,206.31
2023-05-14T03:26:47.737Z,202.81
2023-05-14T03:27:47.721Z,206.10
2023-05-14T03:28:47.720Z,208.90
2023-05-14T03:29:47.731Z,207.62
2023-05-14T03:30:47.799Z,207.72
2023-05-14T03:31:47.732Z,207.51
2023-05-14T03:32:47.746Z,206.84
2023-05-14T03:33:47.741Z,206.83
2023-05-14T03:34:47.726Z,206.38
2023-05-14T03:35:47.740Z,205.38
2023-05-14T03:36:47.728Z,202.47
2023-05-14T03:37:47.719Z,205.74
2023-05-14T03:38:47.730Z,203.03
2023-05-14T03:39:47.723Z,205.51
2023-05-14T03:40:47.703Z,206.19
2023-05-14T03:41:47.707Z,209.45
2023-05-14T03:42:47.685Z,206.00
2023-05-14T03:43:47.713Z,205.49
2023-05-14T03:44:47.701Z,203.40
2023-05-14T03:45:47.697Z,204.71
2023-05-14T03:46:47.702Z,201.67
2023-05-14T03:47:47.841Z,201.23
2023-05-14T03:48:47.688Z,202.86
2023-05-14T03:49:47.686Z,201.52
2023-05-14T03:50:47.685Z,202.76
2023-05-14T03:51:47.695Z,201.39
2023-05-14T03:52:47.697Z,203.42
2023-05-14T03:53:47.690Z,201.69
2023-05-14T03:54:47.686Z,200.96
2023-05-14T03:55:47.696Z,197.80
2023-05-14T03:56:47.675Z,197.73
2023-05-14T03:57:47.676Z,197.17
2023-05-14T03:58:47.662Z,197.58
2023-05-14T03:59:47.694Z,200.45
2023-05-14T04:00:47.694Z,201.48
2023-05-14T04:01:47.693Z,197.74
2023-05-14T04:02:47.823Z,198.00
2023-05-14T04:03:47.855Z,196.69
2023-05-14T04:04:47.753Z,196.80
2023-05-14T04:05:47.693Z,197.78
2023-05-14T04:06:47.674Z,201.15
2023-05-14T04:07:47.675Z,200.21
2023-05-14T04:08:47.668Z,201.14
2023-05-14T04:09:47.686Z,197.66
2023-05-14T04:10:47.669Z,200.94
2023-05-14T04:11:47.675Z,196.55
2023-05-14T04:12:47.680Z,196.67
2023-05-14T04:13:47.676Z,197.38
2023-05-14T04:14:47.663Z,200.44
2023-05-14T04:15:47.684Z,198.17
2023-05-14T04:16:47.705Z,197.34
2023-05-14T04:17:47.735Z,198.47
2023-05-14T04:18:47.767Z,196.60
2023-05-14T04:19:47.689Z,199.02
2023-05-14T04:20:47.683Z,198.30
2023-05-14T04:21:47.698Z,198.17
2023-05-14T04:22:47.697Z,199.79
2023-05-14T04:23:47.698Z,193.39
2023-05-14T04:24:47.699Z,190.17
2023-05-14T04:25:47.714Z,189.71
2023-05-14T04:26:47.717Z,185.26
2023-05-14T04:27:47.736Z,185.07
2023-05-14T04:28:47.800Z,184.17
2023-05-14T04:29:47.857Z,185.72
2023-05-14T04:30:47.889Z,186.16
2023-05-14T04:31:47.996Z,182.46
2023-05-14T04:32:48.034Z,185.28
2023-05-14T04:33:48.041Z,183.17
2023-05-14T04:34:48.108Z,184.88
2023-05-14T04:35:48.178Z,181.04
2023-05-14T04:36:48.243Z,181.52
2023-05-14T04:37:48.276Z,181.02
2023-05-14T04:38:48.313Z,179.24
2023-05-14T04:39:48.382Z,182.54
2023-05-14T04:40:48.453Z,179.87
2023-05-14T04:41:48.484Z,181.33
2023-05-14T04:42:48.490Z,179.17
2023-05-14T04:43:48.482Z,183.12
2023-05-14T04:44:48.492Z,183.49
2023-05-14T04:45:48.524Z,178.78
2023-05-14T04:46:48.508Z,178.06
2023-05-14T04:47:48.557Z,175.32
2023-05-14T04:48:48.495Z,175.27
2023-05-14T04:49:48.564Z,175.94
2023-05-14T04:50:48.514Z,175.74
2023-05-14T04:51:48.518Z,177.11
2023-05-14T04:52:48.522Z,172.88
2023-05-14T04:53:48.525Z,173.02
2023-05-14T04:54:48.550Z,173.71
2023-05-14T04:55:48.530Z,176.69
2023-05-14T04:56:48.517Z,171.45
2023-05-14T04:57:48.523Z,173.88
2023-05-14T04:58:48.566Z,174.37
2023-05-14T04:59:48.572Z,174.87
2023-05-14T05:00:48.581Z,177.85
2023-05-14T05:01:48.638Z,174.74
2023-05-14T05:02:48.628Z,175.14
2023-05-14T05:03:48.642Z,169.73
2023-05-14T05:04:48.607Z,172.70
2023-05-14T05:05:48.621Z,173.00
2023-05-14T05:06:48.621Z,169.57
2023-05-14T05:07:48.601Z,169.70
2023-05-14T05:08:48.615Z,167.34
2023-05-14T05:09:48.626Z,171.18
2023-05-14T05:10:48.646Z,172.03
2023-05-14T05:11:48.658Z,170.63
2023-05-14T05:12:48.662Z,173.60
2023-05-14T05:13:48.670Z,171.90
2023-05-14T05:14:48.671Z,167.16
2023-05-14T05:15:48.683Z,169.89
2023-05-14T05:16:48.669Z,170.98
2023-05-14T05:17:48.729Z,171.85
2023-05-14T05:18:48.702Z,171.07
2023-05-14T05:19:48.682Z,169.61
2023-05-14T05:20:48.690Z,166.73
2023-05-14T05:21:48.710Z,162.19
2023-05-14T05:22:48.707Z,164.16
2023-05-14T05:23:48.713Z,167.33
2023-05-14T05:24:50.098Z,163.11
2023-05-14T05:25:48.738Z,166.06
2023-05-14T05:26:48.765Z,169.80
2023-05-14T05:27:48.744Z,162.65
2023-05-14T05:28:48.766Z,168.36
2023-05-14T05:29:48.778Z,166.49
2023-05-14T05:30:48.792Z,164.80
2023-05-14T05:31:48.905Z,165.12
2023-05-14T05:32:48.827Z,164.31
2023-05-14T05:33:48.789Z,160.73
2023-05-14T05:34:48.796Z,159.39
2023-05-14T05:35:48.792Z,157.74
2023-05-14T05:36:48.812Z,155.84
2023-05-14T05:37:48.803Z,154.32
2023-05-14T05:38:48.817Z,148.50
2023-05-14T05:39:48.828Z,148.70
2023-05-14T05:40:48.833Z,146.46
2023-05-14T05:41:48.882Z,148.85
2023-05-14T05:42:48.926Z,144.80
2023-05-14T05:43:48.972Z,151.58
2023-05-14T05:44:49.037Z,148.16
2023-05-14T05:45:49.102Z,149.05
2023-05-14T05:46:49.219Z,145.77
2023-05-14T05:47:49.272Z,145.35
2023-05-14T05:48:49.259Z,146.12
2023-05-14T05:49:49.311Z,147.34
2023-05-14T05:50:49.369Z,148.32
2023-05-14T05:51:49.423Z,149.56
2023-05-14T05:52:49.492Z,145.01
2023-05-14T05:53:49.529Z,148.06
2023-05-14T05:54:49.594Z,148.27
2023-05-14T05:55:49.594Z,152.74
2023-05-14T05:56:49.622Z,148.33
2023-05-14T05:57:49.592Z,147.57
2023-05-14T05:58:49.617Z,141.02
2023-05-14T05:59:49.620Z,143.71
2023-05-14T06:00:49.635Z,142.82
2023-05-14T06:01:49.688Z,143.77
2023-05-14T06:02:49.712Z,144.59
2023-05-14T06:03:49.648Z,144.25
2023-05-14T06:04:49.644Z,145.87
2023-05-14T06:05:49.741Z,150.44
2023-05-14T06:06:49.678Z,144.37
2023-05-14T06:07:49.646Z,143.83
2023-05-14T06:08:49.659Z,147.69
2023-05-14T06:09:49.669Z,142.39
2023-05-14T06:10:49.681Z,144.83
2023-05-14T06:11:49.691Z,138.83
2023-05-14T06:12:49.675Z,136.79
2023-05-14T06:13:49.683Z,134.37
2023-05-14T06:14:49.696Z,126.50
2023-05-14T06:15:49.691Z,136.67
2023-05-14T06:16:49.767Z,134.23
2023-05-14T06:17:49.723Z,135.08
2023-05-14T06:18:49.723Z,126.65
2023-05-14T06:19:49.689Z,120.12
2023-05-14T06:20:49.694Z,116.82
2023-05-14T06:21:49.704Z,113.93
2023-05-14T06:22:49.691Z,114.93
2023-05-14T06:23:49.705Z,118.41
2023-05-14T06:24:49.689Z,117.94
2023-05-14T06:25:50.666Z,117.65
2023-05-14T06:26:50.242Z,120.90
2023-05-14T06:27:49.670Z,115.96
2023-05-14T06:28:49.661Z,118.12
2023-05-14T06:29:49.677Z,122.61
2023-05-14T06:30:49.680Z,121.57
2023-05-14T06:31:49.702Z,120.56
2023-05-14T06:32:49.749Z,116.88
2023-05-14T06:33:49.669Z,109.36
2023-05-14T06:34:49.674Z,113.19
2023-05-14T06:35:49.653Z,115.23
2023-05-14T06:36:49.660Z,118.56
2023-05-14T06:37:49.663Z,117.26
2023-05-14T06:38:49.645Z,124.75
2023-05-14T06:39:49.665Z,117.84
2023-05-14T06:40:49.644Z,116.99
2023-05-14T06:41:49.634Z,116.63
2023-05-14T06:42:49.658Z,112.46
2023-05-14T06:43:49.632Z,112.81
2023-05-14T06:44:49.651Z,111.68
2023-05-14T06:45:49.648Z,114.35
2023-05-14T06:46:49.665Z,113.87
2023-05-14T06:47:49.647Z,110.59
2023-05-14T06:48:49.675Z,108.87
2023-05-14T06:49:49.633Z,106.21
2023-05-14T06:50:49.628Z,104.23
2023-05-14T06:51:49.617Z,106.36
2023-05-14T06:52:49.608Z,107.22
2023-05-14T06:53:49.612Z,110.56
2023-05-14T06:54:49.596Z,103.14
2023-05-14T06:55:49.627Z,100.40
2023-05-14T06:56:49.656Z,100.57
2023-05-14T06:57:49.661Z,98.65
2023-05-14T06:58:49.699Z,103.08
2023-05-14T06:59:49.759Z,97.47
2023-05-14T07:00:49.778Z,97.65
2023-05-14T07:01:49.929Z,95.59
2023-05-14T07:02:49.873Z,91.35
2023-05-14T07:03:49.916Z,92.57
2023-05-14T07:04:49.985Z,94.58
2023-05-14T07:05:49.979Z,99.63
2023-05-14T07:06:50.000Z,95.23
2023-05-14T07:07:50.055Z,96.51
2023-05-14T07:08:50.062Z,95.62
2023-05-14T07:09:50.085Z,103.13
2023-05-14T07:10:50.115Z,97.26
2023-05-14T07:11:50.140Z,100.41
2023-05-14T07:12:50.166Z,98.45
2023-05-14T07:13:50.195Z,94.84
2023-05-14T07:14:50.236Z,96.99
2023-05-14T07:15:50.250Z,98.16
2023-05-14T07:16:50.328Z,99.65
2023-05-14T07:17:50.416Z,99.24
2023-05-14T07:18:50.445Z,97.63
2023-05-14T07:19:50.446Z,99.23
2023-05-14T07:20:50.474Z,95.40
2023-05-14T07:21:50.522Z,96.98
2023-05-14T07:22:50.535Z,94.30
2023-05-14T07:23:50.557Z,94.56
2023-05-14T07:24:50.561Z,92.80
2023-05-14T07:25:50.589Z,92.17
2023-05-14T07:26:50.610Z,89.19
2023-05-14T07:27:50.652Z,90.93
2023-05-14T07:28:50.664Z,81.25
2023-05-14T07:29:50.683Z,88.61
2023-05-14T07:30:50.720Z,78.16
2023-05-14T07:31:50.759Z,76.97
2023-05-14T07:32:50.797Z,80.89
2023-05-14T07:33:50.846Z,80.56
2023-05-14T07:34:50.895Z,81.47
2023-05-14T07:35:50.956Z,74.55
2023-05-14T07:36:50.997Z,82.23
2023-05-14T07:37:51.086Z,80.37
2023-05-14T07:38:51.100Z,78.63
2023-05-14T07:39:51.174Z,80.64
2023-05-14T07:40:51.218Z,77.89
2023-05-14T07:41:51.286Z,81.02
2023-05-14T07:42:51.341Z,83.74
2023-05-14T07:43:51.402Z,76.23
2023-05-14T07:44:51.459Z,72.82
2023-05-14T07:45:51.499Z,81.03
2023-05-14T07:46:51.582Z,75.26
2023-05-14T07:47:51.741Z,76.26
2023-05-14T07:48:51.634Z,76.84
2023-05-14T07:49:51.691Z,77.28
2023-05-14T07:50:51.757Z,86.87
2023-05-14T07:51:51.804Z,81.87
2023-05-14T07:52:51.837Z,82.11
2023-05-14T07:53:51.902Z,85.26
2023-05-14T07:54:51.967Z,88.73
2023-05-14T07:55:51.968Z,88.45
2023-05-14T07:56:52.027Z,100.07
2023-05-14T07:57:52.063Z,107.55
2023-05-14T07:58:52.118Z,119.25
2023-05-14T07:59:52.155Z,126.64
2023-05-14T08:00:52.210Z,129.05
2023-05-14T08:01:52.269Z,118.77
2023-05-14T08:02:52.643Z,117.97
2023-05-14T08:03:52.504Z,115.20
2023-05-14T08:04:52.419Z,116.55
2023-05-14T08:05:52.476Z,116.12
2023-05-14T08:06:52.462Z,112.25
2023-05-14T08:07:52.516Z,116.31
2023-05-14T08:08:52.532Z,110.98
2023-05-14T08:09:52.542Z,116.72
2023-05-14T08:10:52.564Z,111.62
2023-05-14T08:11:52.584Z,113.39
2023-05-14T08:12:52.642Z,105.69
2023-05-14T08:13:52.680Z,97.90
2023-05-14T08:14:52.720Z,99.69
2023-05-14T08:15:52.759Z,98.21
2023-05-14T08:16:52.833Z,97.63
2023-05-14T08:17:52.868Z,100.11
2023-05-14T08:18:52.849Z,106.69
2023-05-14T08:19:52.873Z,104.93
2023-05-14T08:20:52.891Z,110.53
2023-05-14T08:21:52.929Z,113.25
2023-05-14T08:22:52.948Z,109.45
2023-05-14T08:23:52.991Z,112.81
2023-05-14T08:24:52.995Z,118.30
2023-05-14T08:25:52.991Z,120.42
2023-05-14T08:26:52.987Z,122.65
2023-05-14T08:27:53.008Z,125.10
2023-05-14T08:28:53.027Z,124.18
2023-05-14T08:29:53.052Z,130.60
2023-05-14T08:30:53.061Z,131.08
2023-05-14T08:31:53.075Z,131.19
2023-05-14T08:32:53.173Z,137.39
2023-05-14T08:33:53.143Z,134.11
2023-05-14T08:34:53.150Z,142.03
2023-05-14T08:35:53.165Z,144.13
2023-05-14T08:36:53.170Z,147.42
2023-05-14T08:37:53.180Z,151.36
2023-05-14T08:38:53.176Z,158.91
2023-05-14T08:39:53.189Z,157.61
2023-05-14T08:40:53.196Z,153.34
2023-05-14T08:41:53.235Z,157.17
2023-05-14T08:42:53.224Z,157.43
2023-05-14T08:43:53.247Z,154.83
2023-05-14T08:44:53.268Z,155.62
2023-05-14T08:45:53.252Z,158.98
2023-05-14T08:46:53.289Z,157.83
2023-05-14T08:47:53.381Z,149.10
2023-05-14T08:48:53.317Z,157.44
2023-05-14T08:49:53.316Z,156.30
2023-05-14T08:50:53.317Z,157.07
2023-05-14T08:51:53.361Z,156.94
2023-05-14T08:52:53.348Z,152.18
2023-05-14T08:53:53.341Z,158.96
2023-05-14T08:54:53.346Z,162.52
2023-05-14T08:55:53.346Z,158.57
2023-05-14T08:56:53.391Z,155.45
2023-05-14T08:57:53.349Z,147.36
2023-05-14T08:58:53.357Z,149.39
2023-05-14T08:59:53.375Z,142.97
2023-05-14T09:00:53.383Z,142.66
2023-05-14T09:01:53.433Z,143.75
2023-05-14T09:02:53.458Z,139.18
2023-05-14T09:03:53.450Z,140.51
2023-05-14T09:04:53.443Z,140.19
2023-05-14T09:05:53.435Z,143.16
2023-05-14T09:06:53.470Z,143.42
2023-05-14T09:07:53.456Z,139.64
2023-05-14T09:08:53.460Z,136.21
2023-05-14T09:09:53.464Z,142.41
2023-05-14T09:10:53.466Z,139.90
2023-05-14T09:11:53.480Z,141.06
2023-05-14T09:12:53.458Z,144.19
2023-05-14T09:13:53.470Z,156.73
2023-05-14T09:14:53.458Z,145.50
2023-05-14T09:15:53.498Z,144.30
2023-05-14T09:16:53.514Z,154.95
2023-05-14T09:17:53.548Z,161.09
2023-05-14T09:18:53.505Z,166.92
2023-05-14T09:19:53.479Z,171.42
2023-05-14T09:20:53.469Z,185.43
2023-05-14T09:21:53.485Z,189.13
2023-05-14T09:22:53.487Z,195.16
2023-05-14T09:23:53.496Z,196.22
2023-05-14T09:24:53.517Z,181.27
2023-05-14T09:25:53.547Z,182.25
2023-05-14T09:26:53.573Z,184.72
2023-05-14T09:27:53.609Z,186.68
2023-05-14T09:28:53.651Z,187.54
2023-05-14T09:29:53.709Z,179.11
2023-05-14T09:30:53.752Z,187.86
2023-05-14T09:31:53.853Z,202.21
2023-05-14T09:32:53.968Z,192.62
2023-05-14T09:33:53.942Z,181.60
2023-05-14T09:34:54.001Z,195.15
2023-05-14T09:35:54.050Z,199.86
2023-05-14T09:36:54.181Z,200.58
2023-05-14T09:37:54.183Z,196.37
2023-05-14T09:38:54.218Z,195.01
2023-05-14T09:39:54.258Z,184.05
2023-05-14T09:40:54.319Z,177.65
2023-05-14T09:41:54.392Z,171.17
2023-05-14T09:42:54.491Z,167.24
2023-05-14T09:43:54.523Z,168.62
2023-05-14T09:44:54.580Z,171.67
2023-05-14T09:45:54.649Z,166.84
2023-05-14T09:46:54.802Z,171.52
2023-05-14T09:47:54.938Z,175.58
2023-05-14T09:48:54.846Z,161.44
2023-05-14T09:49:54.886Z,153.96
2023-05-14T09:50:54.967Z,166.05
2023-05-14T09:51:55.042Z,160.96
2023-05-14T09:52:55.077Z,161.65
2023-05-14T09:53:55.110Z,168.87
2023-05-14T09:54:55.181Z,174.26
2023-05-14T09:55:55.231Z,185.77
2023-05-14T09:56:55.944Z,178.35
2023-05-14T09:57:55.366Z,174.43
2023-05-14T09:58:55.379Z,164.66
2023-05-14T09:59:55.428Z,176.82
2023-05-14T10:00:55.511Z,168.92
2023-05-14T10:01:55.519Z,175.63
2023-05-14T10:02:55.602Z,179.22
2023-05-14T10:03:55.653Z,180.48
2023-05-14T10:04:55.667Z,184.87
2023-05-14T10:05:55.699Z,178.27
2023-05-14T10:06:55.768Z,171.34
2023-05-14T10:07:55.801Z,182.89
2023-05-14T10:08:55.846Z,182.53
2023-05-14T10:09:57.619Z,183.40
2023-05-14T10:10:55.909Z,179.20
2023-05-14T10:11:55.891Z,181.18
2023-05-14T10:12:55.888Z,166.82
2023-05-14T10:13:55.882Z,162.55
2023-05-14T10:14:55.897Z,166.93
2023-05-14T10:15:55.856Z,156.48
2023-05-14T10:16:55.894Z,155.89
2023-05-14T10:17:55.897Z,168.88
2023-05-14T10:18:57.389Z,167.54
2023-05-14T10:19:55.855Z,168.41
2023-05-14T10:20:55.848Z,161.89
2023-05-14T10:21:55.825Z,169.93
2023-05-14T10:22:55.836Z,165.30
2023-05-14T10:23:55.793Z,161.21
2023-05-14T10:24:55.816Z,167.48
2023-05-14T10:25:55.810Z,163.82
2023-05-14T10:26:55.810Z,160.90
2023-05-14T10:27:55.780Z,166.06
2023-05-14T10:28:55.814Z,172.65
2023-05-14T10:29:55.900Z,162.13
2023-05-14T10:30:55.995Z,157.50
2023-05-14T10:31:56.017Z,154.52
2023-05-14T10:32:56.088Z,145.11
2023-05-14T10:33:57.516Z,140.86
2023-05-14T10:34:56.104Z,140.47
2023-05-14T10:35:56.092Z,159.49
2023-05-14T10:36:56.091Z,150.69
2023-05-14T10:37:56.101Z,147.43
2023-05-14T10:38:56.107Z,145.97
2023-05-14T10:39:56.096Z,144.65
2023-05-14T10:40:56.098Z,148.72
2023-05-14T10:41:56.079Z,156.23
2023-05-14T10:42:56.063Z,162.14
2023-05-14T10:43:56.043Z,156.51
2023-05-14T10:44:56.070Z,148.41
2023-05-14T10:45:56.048Z,145.62
2023-05-14T10:46:56.145Z,135.69
2023-05-14T10:47:56.067Z,140.85
2023-05-14T10:48:56.026Z,133.77
2023-05-14T10:49:56.006Z,137.33
2023-05-14T10:50:56.036Z,141.51
2023-05-14T10:51:55.993Z,149.40
2023-05-14T10:52:55.989Z,166.12
2023-05-14T10:53:55.982Z,157.08
2023-05-14T10:54:55.988Z,165.13
2023-05-14T10:55:55.967Z,154.65
2023-05-14T10:56:55.958Z,165.08
2023-05-14T10:57:55.956Z,160.15
2023-05-14T10:58:55.954Z,159.30
2023-05-14T10:59:55.949Z,157.61
2023-05-14T11:00:55.939Z,161.41
2023-05-14T11:01:55.952Z,157.08
2023-05-14T11:02:56.071Z,161.77
2023-05-14T11:03:56.088Z,148.12
2023-05-14T11:04:55.927Z,147.10
2023-05-14T11:05:55.901Z,147.33
2023-05-14T11:06:55.893Z,143.20
2023-05-14T11:07:55.930Z,135.33
2023-05-14T11:08:55.898Z,137.95
2023-05-14T11:09:55.883Z,144.28
2023-05-14T11:10:55.867Z,148.31
2023-05-14T11:11:55.887Z,139.59
2023-05-14T11:12:55.879Z,142.37
2023-05-14T11:13:55.861Z,137.49
2023-05-14T11:14:55.862Z,147.44
2023-05-14T11:15:55.941Z,141.57
2023-05-14T11:16:56.033Z,129.44
2023-05-14T11:17:56.132Z,143.25
2023-05-14T11:18:56.155Z,160.52
2023-05-14T11:19:56.181Z,154.30
2023-05-14T11:20:56.261Z,156.17
2023-05-14T11:21:56.311Z,158.77
2023-05-14T11:22:56.394Z,149.24
2023-05-14T11:23:56.447Z,167.61
2023-05-14T11:24:56.512Z,164.14
2023-05-14T11:25:56.591Z,165.45
2023-05-14T11:26:56.612Z,148.67
2023-05-14T11:27:56.696Z,152.54
2023-05-14T11:28:56.754Z,162.23
2023-05-14T11:29:56.818Z,151.58
2023-05-14T11:30:56.862Z,144.76
2023-05-14T11:31:56.969Z,148.09
2023-05-14T11:32:57.355Z,147.15
2023-05-14T11:33:57.049Z,149.46
2023-05-14T11:34:57.116Z,133.84
2023-05-14T11:35:57.174Z,128.78
2023-05-14T11:36:57.246Z,139.81
2023-05-14T11:37:57.280Z,136.46
2023-05-14T11:38:57.372Z,128.88
2023-05-14T11:39:57.397Z,132.94
2023-05-14T11:40:57.429Z,129.78
2023-05-14T11:41:57.486Z,125.30
2023-05-14T11:42:57.513Z,131.43
2023-05-14T11:43:57.559Z,133.73
2023-05-14T11:44:57.639Z,134.32
2023-05-14T11:45:57.757Z,133.91
2023-05-14T11:46:57.705Z,135.69
2023-05-14T11:47:57.810Z,143.86
2023-05-14T11:48:57.778Z,141.76
2023-05-14T11:49:57.787Z,138.38
2023-05-14T11:50:57.820Z,128.74
2023-05-14T11:51:57.855Z,132.07
2023-05-14T11:52:57.895Z,128.05
2023-05-14T11:53:57.940Z,132.68
2023-05-14T11:54:57.962Z,143.56
2023-05-14T11:55:58.099Z,147.00
2023-05-14T11:56:58.056Z,143.35
2023-05-14T11:57:58.051Z,142.41
2023-05-14T11:58:58.076Z,127.38
2023-05-14T11:59:58.098Z,136.40
2023-05-14T12:00:58.065Z,127.76
2023-05-14T12:01:58.077Z,127.49
2023-05-14T12:02:58.151Z,129.32
2023-05-14T12:03:58.183Z,113.43
2023-05-14T12:04:58.041Z,124.66
2023-05-14T12:05:58.056Z,129.95
2023-05-14T12:06:58.044Z,131.50
2023-05-14T12:07:58.035Z,136.83
2023-05-14T12:08:58.026Z,130.90
2023-05-14T12:09:58.016Z,140.24
2023-05-14T12:10:58.022Z,120.38
2023-05-14T12:11:58.028Z,127.74
2023-05-14T12:12:58.015Z,130.13
2023-05-14T12:13:58.027Z,112.49
2023-05-14T12:14:58.009Z,125.79
2023-05-14T12:15:58.061Z,126.01
2023-05-14T12:16:58.011Z,130.98
2023-05-14T12:17:58.057Z,134.48
2023-05-14T12:18:58.104Z,134.43
2023-05-14T12:19:58.025Z,153.73
2023-05-14T12:20:58.026Z,140.29
2023-05-14T12:21:58.009Z,145.07
2023-05-14T12:22:58.014Z,131.53
2023-05-14T12:23:58.012Z,139.92
2023-05-14T12:24:58.044Z,141.35
2023-05-14T12:25:58.026Z,150.28
2023-05-14T12:26:58.043Z,125.37
2023-05-14T12:27:58.043Z,126.63
2023-05-14T12:28:58.042Z,144.41
2023-05-14T12:30:03.844Z,136.22
2023-05-14T12:30:59.127Z,136.54